sensor_id;sensor_type;location;lat;lon;timestamp;temperature;humidity
26378;DHT22;14078;50.974;6.786;2023-04-15T00:00:14;7.00;1.00
26378;DHT22;14078;50.974;6.786;2023-04-15T00:02:43;7.00;64.50
26378;DHT22;14078;50.974;6.786;2023-04-15T00:05:09;7.00;99.90
26378;DHT22;14078;50.974;6.786;2023-04-15T00:07:36;6.90;99.90
26378;DHT22;14078;50.974;6.786;2023-04-15T00:10:03;6.70;99.90
26378;DHT22;14078;50.974;6.786;2023-04-15T00:12:29;6.70;99.90
26378;DHT22;14078;50.974;6.786;2023-04-15T00:14:56;6.70;1.00
26378;DHT22;14078;50.974;6.786;2023-04-15T00:17:23;6.70;99.90
26378;DHT22;14078;50.974;6.786;2023-04-15T00:19:51;6.60;1.00
26378;DHT22;14078;50.974;6.786;2023-04-15T00:22:18;6.50;99.90
26378;DHT22;14078;50.974;6.786;2023-04-15T00:24:45;6.40;1.00
26378;DHT22;14078;50.974;6.786;2023-04-15T00:27:11;6.50;1.00
26378;DHT22;14078;50.974;6.786;2023-04-15T00:29:38;6.50;1.00
26378;DHT22;14078;50.974;6.786;2023-04-15T00:32:05;6.50;99.90
26378;DHT22;14078;50.974;6.786;2023-04-15T00:34:32;6.50;99.90
26378;DHT22;14078;50.974;6.786;2023-04-15T00:37:00;6.50;99.90
26378;DHT22;14078;50.974;6.786;2023-04-15T00:39:26;6.40;1.00
26378;DHT22;14078;50.974;6.786;2023-04-15T00:41:53;6.40;1.00
26378;DHT22;14078;50.974;6.786;2023-04-15T00:44:20;6.40;99.90
26378;DHT22;14078;50.974;6.786;2023-04-15T00:46:46;6.30;99.90
26378;DHT22;14078;50.974;6.786;2023-04-15T00:49:13;6.30;99.90
26378;DHT22;14078;50.974;6.786;2023-04-15T00:51:40;6.20;75.20
26378;DHT22;14078;50.974;6.786;2023-04-15T00:54:07;6.20;99.90
26378;DHT22;14078;50.974;6.786;2023-04-15T00:56:35;6.20;1.00
26378;DHT22;14078;50.974;6.786;2023-04-15T00:59:02;6.20;36.90
26378;DHT22;14078;50.974;6.786;2023-04-15T01:01:29;6.20;99.90
26378;DHT22;14078;50.974;6.786;2023-04-15T01:03:56;6.10;1.00
26378;DHT22;14078;50.974;6.786;2023-04-15T01:06:23;6.20;1.00
26378;DHT22;14078;50.974;6.786;2023-04-15T01:08:49;6.20;99.90
26378;DHT22;14078;50.974;6.786;2023-04-15T01:11:17;6.20;99.90
26378;DHT22;14078;50.974;6.786;2023-04-15T01:13:44;6.20;99.90
26378;DHT22;14078;50.974;6.786;2023-04-15T01:16:11;6.10;99.90
26378;DHT22;14078;50.974;6.786;2023-04-15T01:18:39;6.10;70.30
26378;DHT22;14078;50.974;6.786;2023-04-15T01:21:05;6.10;1.00
26378;DHT22;14078;50.974;6.786;2023-04-15T01:23:34;6.10;1.00
26378;DHT22;14078;50.974;6.786;2023-04-15T01:26:02;6.10;99.90
26378;DHT22;14078;50.974;6.786;2023-04-15T01:28:29;6.10;99.90
26378;DHT22;14078;50.974;6.786;2023-04-15T01:31:05;6.10;99.90
26378;DHT22;14078;50.974;6.786;2023-04-15T01:33:32;6.10;1.00
26378;DHT22;14078;50.974;6.786;2023-04-15T01:35:59;6.10;1.00
26378;DHT22;14078;50.974;6.786;2023-04-15T01:38:26;6.10;1.00
26378;DHT22;14078;50.974;6.786;2023-04-15T01:40:52;6.10;99.90
26378;DHT22;14078;50.974;6.786;2023-04-15T01:43:20;6.00;99.90
26378;DHT22;14078;50.974;6.786;2023-04-15T01:45:47;6.00;1.00
26378;DHT22;14078;50.974;6.786;2023-04-15T01:48:14;6.00;99.90
26378;DHT22;14078;50.974;6.786;2023-04-15T01:50:41;5.90;1.00
26378;DHT22;14078;50.974;6.786;2023-04-15T01:53:08;6.00;1.00
26378;DHT22;14078;50.974;6.786;2023-04-15T01:55:35;6.00;1.00
26378;DHT22;14078;50.974;6.786;2023-04-15T01:58:01;6.00;99.90
26378;DHT22;14078;50.974;6.786;2023-04-15T02:00:29;6.00;1.00
26378;DHT22;14078;50.974;6.786;2023-04-15T02:02:56;5.90;1.00
26378;DHT22;14078;50.974;6.786;2023-04-15T02:05:23;5.90;99.90
26378;DHT22;14078;50.974;6.786;2023-04-15T02:07:50;5.90;1.00
26378;DHT22;14078;50.974;6.786;2023-04-15T02:10:16;5.80;99.90
26378;DHT22;14078;50.974;6.786;2023-04-15T02:12:43;5.80;1.00
26378;DHT22;14078;50.974;6.786;2023-04-15T02:15:09;5.80;1.00
26378;DHT22;14078;50.974;6.786;2023-04-15T02:17:39;5.70;1.00
26378;DHT22;14078;50.974;6.786;2023-04-15T02:20:10;5.70;1.00
26378;DHT22;14078;50.974;6.786;2023-04-15T02:22:36;5.60;1.00
26378;DHT22;14078;50.974;6.786;2023-04-15T02:25:03;5.50;1.00
26378;DHT22;14078;50.974;6.786;2023-04-15T02:27:30;5.50;1.00
26378;DHT22;14078;50.974;6.786;2023-04-15T02:29:57;5.60;1.00
26378;DHT22;14078;50.974;6.786;2023-04-15T02:32:23;5.60;1.00
26378;DHT22;14078;50.974;6.786;2023-04-15T02:34:51;5.60;1.00
26378;DHT22;14078;50.974;6.786;2023-04-15T02:37:17;5.70;1.00
26378;DHT22;14078;50.974;6.786;2023-04-15T02:39:44;5.70;1.00
26378;DHT22;14078;50.974;6.786;2023-04-15T02:42:11;5.70;99.90
26378;DHT22;14078;50.974;6.786;2023-04-15T02:44:38;5.60;1.00
26378;DHT22;14078;50.974;6.786;2023-04-15T02:47:04;5.60;1.00
26378;DHT22;14078;50.974;6.786;2023-04-15T02:49:31;5.60;1.00
26378;DHT22;14078;50.974;6.786;2023-04-15T02:51:59;5.60;1.00
26378;DHT22;14078;50.974;6.786;2023-04-15T02:54:26;5.60;1.00
26378;DHT22;14078;50.974;6.786;2023-04-15T02:56:53;5.50;1.00
26378;DHT22;14078;50.974;6.786;2023-04-15T02:59:21;5.50;1.00
26378;DHT22;14078;50.974;6.786;2023-04-15T03:01:47;5.40;1.00
26378;DHT22;14078;50.974;6.786;2023-04-15T03:04:14;5.40;1.00
26378;DHT22;14078;50.974;6.786;2023-04-15T03:06:40;5.30;1.00
26378;DHT22;14078;50.974;6.786;2023-04-15T03:09:08;5.30;1.00
26378;DHT22;14078;50.974;6.786;2023-04-15T03:11:34;5.40;1.00
26378;DHT22;14078;50.974;6.786;2023-04-15T03:14:04;5.40;1.00
26378;DHT22;14078;50.974;6.786;2023-04-15T03:16:31;5.40;1.00
26378;DHT22;14078;50.974;6.786;2023-04-15T03:18:57;5.30;1.00
26378;DHT22;14078;50.974;6.786;2023-04-15T03:21:24;5.30;24.00
26378;DHT22;14078;50.974;6.786;2023-04-15T03:23:51;5.40;17.50
26378;DHT22;14078;50.974;6.786;2023-04-15T03:26:29;5.30;21.60
26378;DHT22;14078;50.974;6.786;2023-04-15T03:28:56;5.30;35.90
26378;DHT22;14078;50.974;6.786;2023-04-15T03:31:22;5.20;1.00
26378;DHT22;14078;50.974;6.786;2023-04-15T03:33:49;5.00;24.70
26378;DHT22;14078;50.974;6.786;2023-04-15T03:36:15;4.90;52.80
26378;DHT22;14078;50.974;6.786;2023-04-15T03:38:42;4.80;65.30
26378;DHT22;14078;50.974;6.786;2023-04-15T03:41:08;4.70;76.30
26378;DHT22;14078;50.974;6.786;2023-04-15T03:43:36;4.60;92.10
26378;DHT22;14078;50.974;6.786;2023-04-15T03:46:03;4.70;99.90
26378;DHT22;14078;50.974;6.786;2023-04-15T03:48:29;4.80;99.90
26378;DHT22;14078;50.974;6.786;2023-04-15T03:50:56;4.90;98.70
26378;DHT22;14078;50.974;6.786;2023-04-15T03:53:23;4.90;45.00
26378;DHT22;14078;50.974;6.786;2023-04-15T03:55:49;4.80;42.80
26378;DHT22;14078;50.974;6.786;2023-04-15T03:58:16;4.80;51.00
26378;DHT22;14078;50.974;6.786;2023-04-15T04:00:44;4.60;62.00
26378;DHT22;14078;50.974;6.786;2023-04-15T04:03:11;4.60;89.90
26378;DHT22;14078;50.974;6.786;2023-04-15T04:05:37;4.70;99.40
26378;DHT22;14078;50.974;6.786;2023-04-15T04:08:05;4.70;98.30
26378;DHT22;14078;50.974;6.786;2023-04-15T04:10:32;4.80;99.90
26378;DHT22;14078;50.974;6.786;2023-04-15T04:12:58;4.80;92.70
26378;DHT22;14078;50.974;6.786;2023-04-15T04:15:25;4.90;80.20
26378;DHT22;14078;50.974;6.786;2023-04-15T04:17:53;4.90;41.50
26378;DHT22;14078;50.974;6.786;2023-04-15T04:20:20;4.90;18.60
26378;DHT22;14078;50.974;6.786;2023-04-15T04:22:46;4.80;12.50
26378;DHT22;14078;50.974;6.786;2023-04-15T04:25:13;4.90;8.10
26378;DHT22;14078;50.974;6.786;2023-04-15T04:27:40;4.80;6.40
26378;DHT22;14078;50.974;6.786;2023-04-15T04:30:07;4.80;8.10
26378;DHT22;14078;50.974;6.786;2023-04-15T04:32:34;4.70;21.40
26378;DHT22;14078;50.974;6.786;2023-04-15T04:35:02;4.70;37.40
26378;DHT22;14078;50.974;6.786;2023-04-15T04:37:29;4.70;52.70
26378;DHT22;14078;50.974;6.786;2023-04-15T04:39:55;4.70;71.00
26378;DHT22;14078;50.974;6.786;2023-04-15T04:42:22;4.80;55.70
26378;DHT22;14078;50.974;6.786;2023-04-15T04:44:48;4.70;38.70
26378;DHT22;14078;50.974;6.786;2023-04-15T04:47:15;4.70;35.20
26378;DHT22;14078;50.974;6.786;2023-04-15T04:49:41;4.60;40.40
26378;DHT22;14078;50.974;6.786;2023-04-15T04:52:09;4.60;42.10
26378;DHT22;14078;50.974;6.786;2023-04-15T04:54:36;4.60;39.20
26378;DHT22;14078;50.974;6.786;2023-04-15T04:57:02;4.70;35.70
26378;DHT22;14078;50.974;6.786;2023-04-15T04:59:29;4.70;45.30
26378;DHT22;14078;50.974;6.786;2023-04-15T05:01:55;4.80;43.30
26378;DHT22;14078;50.974;6.786;2023-04-15T05:04:22;4.80;49.50
26378;DHT22;14078;50.974;6.786;2023-04-15T05:06:48;4.80;71.70
26378;DHT22;14078;50.974;6.786;2023-04-15T05:09:17;4.80;43.90
26378;DHT22;14078;50.974;6.786;2023-04-15T05:11:43;4.80;40.10
26378;DHT22;14078;50.974;6.786;2023-04-15T05:14:10;4.90;44.50
26378;DHT22;14078;50.974;6.786;2023-04-15T05:16:36;4.90;44.60
26378;DHT22;14078;50.974;6.786;2023-04-15T05:19:03;4.90;45.00
26378;DHT22;14078;50.974;6.786;2023-04-15T05:21:29;5.00;30.60
26378;DHT22;14078;50.974;6.786;2023-04-15T05:23:56;5.00;30.80
26378;DHT22;14078;50.974;6.786;2023-04-15T05:26:24;5.00;35.60
26378;DHT22;14078;50.974;6.786;2023-04-15T05:28:51;5.00;35.70
26378;DHT22;14078;50.974;6.786;2023-04-15T05:31:18;5.10;43.00
26378;DHT22;14078;50.974;6.786;2023-04-15T05:33:45;5.10;44.20
26378;DHT22;14078;50.974;6.786;2023-04-15T05:36:11;5.20;39.00
26378;DHT22;14078;50.974;6.786;2023-04-15T05:38:38;5.20;33.50
26378;DHT22;14078;50.974;6.786;2023-04-15T05:41:04;5.30;28.60
26378;DHT22;14078;50.974;6.786;2023-04-15T05:43:32;5.30;66.30
26378;DHT22;14078;50.974;6.786;2023-04-15T05:45:59;5.30;85.70
26378;DHT22;14078;50.974;6.786;2023-04-15T05:48:25;5.40;96.60
26378;DHT22;14078;50.974;6.786;2023-04-15T05:50:52;5.50;99.90
26378;DHT22;14078;50.974;6.786;2023-04-15T05:53:19;5.60;93.40
26378;DHT22;14078;50.974;6.786;2023-04-15T05:55:45;5.60;88.30
26378;DHT22;14078;50.974;6.786;2023-04-15T05:58:12;5.70;57.00
26378;DHT22;14078;50.974;6.786;2023-04-15T06:00:40;5.80;45.10
26378;DHT22;14078;50.974;6.786;2023-04-15T06:03:06;5.90;34.00
26378;DHT22;14078;50.974;6.786;2023-04-15T06:05:33;6.10;15.30
26378;DHT22;14078;50.974;6.786;2023-04-15T06:07:59;6.30;1.00
26378;DHT22;14078;50.974;6.786;2023-04-15T06:10:26;6.50;1.00
26378;DHT22;14078;50.974;6.786;2023-04-15T06:12:53;6.70;1.00
26378;DHT22;14078;50.974;6.786;2023-04-15T06:15:19;6.80;1.00
26378;DHT22;14078;50.974;6.786;2023-04-15T06:17:47;7.00;99.90
26378;DHT22;14078;50.974;6.786;2023-04-15T06:20:14;7.10;99.90
26378;DHT22;14078;50.974;6.786;2023-04-15T06:22:40;7.20;1.00
26378;DHT22;14078;50.974;6.786;2023-04-15T06:25:07;7.30;99.90
26378;DHT22;14078;50.974;6.786;2023-04-15T06:27:34;7.30;99.90
26378;DHT22;14078;50.974;6.786;2023-04-15T06:30:01;7.40;99.90
26378;DHT22;14078;50.974;6.786;2023-04-15T06:32:27;7.50;99.90
26378;DHT22;14078;50.974;6.786;2023-04-15T06:34:55;7.50;7.40
26378;DHT22;14078;50.974;6.786;2023-04-15T06:37:22;7.60;1.00
26378;DHT22;14078;50.974;6.786;2023-04-15T06:39:48;7.60;99.90
26378;DHT22;14078;50.974;6.786;2023-04-15T06:42:15;7.70;99.90
26378;DHT22;14078;50.974;6.786;2023-04-15T06:44:41;7.80;99.90
26378;DHT22;14078;50.974;6.786;2023-04-15T06:47:08;7.90;99.90
26378;DHT22;14078;50.974;6.786;2023-04-15T06:49:34;8.10;32.80
26378;DHT22;14078;50.974;6.786;2023-04-15T06:52:02;8.20;99.90
26378;DHT22;14078;50.974;6.786;2023-04-15T06:54:29;8.40;99.90
26378;DHT22;14078;50.974;6.786;2023-04-15T06:56:56;8.50;99.90
26378;DHT22;14078;50.974;6.786;2023-04-15T06:59:22;8.70;1.00
26378;DHT22;14078;50.974;6.786;2023-04-15T07:01:49;8.70;99.90
26378;DHT22;14078;50.974;6.786;2023-04-15T07:04:16;8.60;99.90
26378;DHT22;14078;50.974;6.786;2023-04-15T07:06:42;8.70;99.90
26378;DHT22;14078;50.974;6.786;2023-04-15T07:09:11;8.80;1.00
26378;DHT22;14078;50.974;6.786;2023-04-15T07:11:37;8.80;99.90
26378;DHT22;14078;50.974;6.786;2023-04-15T07:14:04;8.80;1.00
26378;DHT22;14078;50.974;6.786;2023-04-15T07:16:30;8.80;1.00
26378;DHT22;14078;50.974;6.786;2023-04-15T07:18:59;8.90;1.00
26378;DHT22;14078;50.974;6.786;2023-04-15T07:21:25;9.00;99.90
26378;DHT22;14078;50.974;6.786;2023-04-15T07:23:52;9.10;1.00
26378;DHT22;14078;50.974;6.786;2023-04-15T07:26:20;9.10;14.10
26378;DHT22;14078;50.974;6.786;2023-04-15T07:28:47;9.20;1.00
26378;DHT22;14078;50.974;6.786;2023-04-15T07:31:14;9.20;99.90
26378;DHT22;14078;50.974;6.786;2023-04-15T07:33:41;9.20;99.90
26378;DHT22;14078;50.974;6.786;2023-04-15T07:36:08;9.50;99.90
26378;DHT22;14078;50.974;6.786;2023-04-15T07:38:35;9.50;99.90
26378;DHT22;14078;50.974;6.786;2023-04-15T07:41:01;9.60;99.90
26378;DHT22;14078;50.974;6.786;2023-04-15T07:43:29;9.70;1.00
26378;DHT22;14078;50.974;6.786;2023-04-15T07:45:56;9.90;1.00
26378;DHT22;14078;50.974;6.786;2023-04-15T07:48:22;10.00;1.00
26378;DHT22;14078;50.974;6.786;2023-04-15T07:50:49;10.20;1.00
26378;DHT22;14078;50.974;6.786;2023-04-15T07:53:15;10.20;99.90
26378;DHT22;14078;50.974;6.786;2023-04-15T07:55:42;10.30;3.40
26378;DHT22;14078;50.974;6.786;2023-04-15T07:58:08;10.50;1.00
26378;DHT22;14078;50.974;6.786;2023-04-15T08:00:36;10.50;99.90
26378;DHT22;14078;50.974;6.786;2023-04-15T08:03:03;10.70;1.00
26378;DHT22;14078;50.974;6.786;2023-04-15T08:05:30;10.70;1.00
26378;DHT22;14078;50.974;6.786;2023-04-15T08:07:56;10.70;21.20
26378;DHT22;14078;50.974;6.786;2023-04-15T08:10:23;10.80;99.90
26378;DHT22;14078;50.974;6.786;2023-04-15T08:12:49;11.10;99.90
26378;DHT22;14078;50.974;6.786;2023-04-15T08:15:18;11.30;99.90
26378;DHT22;14078;50.974;6.786;2023-04-15T08:17:46;11.50;26.70
26378;DHT22;14078;50.974;6.786;2023-04-15T08:20:13;11.50;1.00
26378;DHT22;14078;50.974;6.786;2023-04-15T08:22:39;11.50;1.00
26378;DHT22;14078;50.974;6.786;2023-04-15T08:25:07;11.60;1.00
26378;DHT22;14078;50.974;6.786;2023-04-15T08:27:34;11.60;1.00
26378;DHT22;14078;50.974;6.786;2023-04-15T08:30:01;11.80;1.00
26378;DHT22;14078;50.974;6.786;2023-04-15T08:32:28;11.80;1.00
26378;DHT22;14078;50.974;6.786;2023-04-15T08:34:55;11.90;1.00
26378;DHT22;14078;50.974;6.786;2023-04-15T08:37:22;12.00;1.00
26378;DHT22;14078;50.974;6.786;2023-04-15T08:39:48;12.00;1.00
26378;DHT22;14078;50.974;6.786;2023-04-15T08:42:15;12.10;1.00
26378;DHT22;14078;50.974;6.786;2023-04-15T08:44:42;12.10;1.00
26378;DHT22;14078;50.974;6.786;2023-04-15T08:47:09;12.30;99.90
26378;DHT22;14078;50.974;6.786;2023-04-15T08:49:38;12.40;99.90
26378;DHT22;14078;50.974;6.786;2023-04-15T08:52:06;12.30;99.90
26378;DHT22;14078;50.974;6.786;2023-04-15T08:54:34;12.40;99.90
26378;DHT22;14078;50.974;6.786;2023-04-15T08:57:00;12.40;99.90
26378;DHT22;14078;50.974;6.786;2023-04-15T08:59:29;12.40;99.90
26378;DHT22;14078;50.974;6.786;2023-04-15T09:01:55;12.40;99.90
26378;DHT22;14078;50.974;6.786;2023-04-15T09:04:22;12.50;99.90
26378;DHT22;14078;50.974;6.786;2023-04-15T09:06:49;12.40;99.90
26378;DHT22;14078;50.974;6.786;2023-04-15T09:09:17;12.50;99.90
26378;DHT22;14078;50.974;6.786;2023-04-15T09:11:44;12.50;99.90
26378;DHT22;14078;50.974;6.786;2023-04-15T09:14:11;12.70;99.90
26378;DHT22;14078;50.974;6.786;2023-04-15T09:16:56;12.70;99.90
26378;DHT22;14078;50.974;6.786;2023-04-15T09:19:23;12.70;99.90
26378;DHT22;14078;50.974;6.786;2023-04-15T09:21:50;12.40;99.90
26378;DHT22;14078;50.974;6.786;2023-04-15T09:24:17;12.30;99.90
26378;DHT22;14078;50.974;6.786;2023-04-15T09:26:44;12.40;99.90
26378;DHT22;14078;50.974;6.786;2023-04-15T09:29:11;12.60;99.90
26378;DHT22;14078;50.974;6.786;2023-04-15T09:31:38;12.80;99.90
26378;DHT22;14078;50.974;6.786;2023-04-15T09:34:05;12.60;99.90
26378;DHT22;14078;50.974;6.786;2023-04-15T09:36:36;12.40;99.90
26378;DHT22;14078;50.974;6.786;2023-04-15T09:39:05;12.40;99.90
26378;DHT22;14078;50.974;6.786;2023-04-15T09:41:33;12.50;99.90
26378;DHT22;14078;50.974;6.786;2023-04-15T09:43:59;12.60;99.90
26378;DHT22;14078;50.974;6.786;2023-04-15T09:46:41;12.70;99.90
26378;DHT22;14078;50.974;6.786;2023-04-15T09:49:08;12.70;99.90
26378;DHT22;14078;50.974;6.786;2023-04-15T09:51:35;12.50;99.90
26378;DHT22;14078;50.974;6.786;2023-04-15T09:54:02;12.50;99.90
26378;DHT22;14078;50.974;6.786;2023-04-15T09:56:33;12.60;99.90
26378;DHT22;14078;50.974;6.786;2023-04-15T09:59:00;12.50;99.90
26378;DHT22;14078;50.974;6.786;2023-04-15T10:01:27;12.50;99.90
26378;DHT22;14078;50.974;6.786;2023-04-15T10:03:53;12.50;99.90
26378;DHT22;14078;50.974;6.786;2023-04-15T10:06:22;12.60;99.90
26378;DHT22;14078;50.974;6.786;2023-04-15T10:08:49;12.80;99.90
26378;DHT22;14078;50.974;6.786;2023-04-15T10:11:16;12.90;99.90
26378;DHT22;14078;50.974;6.786;2023-04-15T10:13:44;12.90;99.90
26378;DHT22;14078;50.974;6.786;2023-04-15T10:16:13;12.90;99.90
26378;DHT22;14078;50.974;6.786;2023-04-15T10:18:42;12.90;99.90
26378;DHT22;14078;50.974;6.786;2023-04-15T10:21:09;13.20;99.90
26378;DHT22;14078;50.974;6.786;2023-04-15T10:23:35;13.30;99.90
26378;DHT22;14078;50.974;6.786;2023-04-15T10:26:03;13.40;99.90
26378;DHT22;14078;50.974;6.786;2023-04-15T10:28:30;13.20;99.90
26378;DHT22;14078;50.974;6.786;2023-04-15T10:30:58;13.10;99.90
26378;DHT22;14078;50.974;6.786;2023-04-15T10:33:24;13.30;99.90
26378;DHT22;14078;50.974;6.786;2023-04-15T10:35:55;13.40;99.90
26378;DHT22;14078;50.974;6.786;2023-04-15T10:38:31;13.50;99.90
26378;DHT22;14078;50.974;6.786;2023-04-15T10:41:10;13.40;99.90
26378;DHT22;14078;50.974;6.786;2023-04-15T10:43:37;13.30;99.90
26378;DHT22;14078;50.974;6.786;2023-04-15T10:46:05;13.20;99.90
26378;DHT22;14078;50.974;6.786;2023-04-15T10:48:32;13.00;99.90
26378;DHT22;14078;50.974;6.786;2023-04-15T10:50:59;13.10;99.90
26378;DHT22;14078;50.974;6.786;2023-04-15T10:53:27;13.20;99.90
26378;DHT22;14078;50.974;6.786;2023-04-15T10:55:53;13.30;99.90
26378;DHT22;14078;50.974;6.786;2023-04-15T10:58:22;13.40;99.90
26378;DHT22;14078;50.974;6.786;2023-04-15T11:00:49;13.40;99.90
26378;DHT22;14078;50.974;6.786;2023-04-15T11:03:20;13.60;99.90
26378;DHT22;14078;50.974;6.786;2023-04-15T11:05:59;13.70;99.90
26378;DHT22;14078;50.974;6.786;2023-04-15T11:11:07;13.70;99.90
26378;DHT22;14078;50.974;6.786;2023-04-15T11:13:33;13.70;99.90
26378;DHT22;14078;50.974;6.786;2023-04-15T11:16:00;13.60;99.90
26378;DHT22;14078;50.974;6.786;2023-04-15T11:18:29;13.50;99.90
26378;DHT22;14078;50.974;6.786;2023-04-15T11:20:57;13.50;99.90
26378;DHT22;14078;50.974;6.786;2023-04-15T11:23:28;13.40;99.90
26378;DHT22;14078;50.974;6.786;2023-04-15T11:25:56;13.30;99.90
26378;DHT22;14078;50.974;6.786;2023-04-15T11:28:24;13.40;99.90
26378;DHT22;14078;50.974;6.786;2023-04-15T11:30:51;13.40;99.90
26378;DHT22;14078;50.974;6.786;2023-04-15T11:33:18;13.40;99.90
26378;DHT22;14078;50.974;6.786;2023-04-15T11:35:46;13.40;99.90
26378;DHT22;14078;50.974;6.786;2023-04-15T11:38:13;13.50;99.90
26378;DHT22;14078;50.974;6.786;2023-04-15T11:40:40;13.50;99.90
26378;DHT22;14078;50.974;6.786;2023-04-15T11:43:07;13.60;99.90
26378;DHT22;14078;50.974;6.786;2023-04-15T11:45:34;13.40;99.90
26378;DHT22;14078;50.974;6.786;2023-04-15T11:48:04;13.30;99.90
26378;DHT22;14078;50.974;6.786;2023-04-15T11:50:30;13.30;99.90
26378;DHT22;14078;50.974;6.786;2023-04-15T11:52:59;13.20;99.90
26378;DHT22;14078;50.974;6.786;2023-04-15T11:55:26;13.20;99.90
26378;DHT22;14078;50.974;6.786;2023-04-15T11:58:04;13.10;99.90
26378;DHT22;14078;50.974;6.786;2023-04-15T12:00:32;13.10;99.90
26378;DHT22;14078;50.974;6.786;2023-04-15T12:03:10;12.90;99.90
26378;DHT22;14078;50.974;6.786;2023-04-15T12:05:44;12.80;99.90
26378;DHT22;14078;50.974;6.786;2023-04-15T12:11:10;12.60;99.90
26378;DHT22;14078;50.974;6.786;2023-04-15T12:13:37;12.60;99.90
26378;DHT22;14078;50.974;6.786;2023-04-15T12:16:03;12.60;99.90
26378;DHT22;14078;50.974;6.786;2023-04-15T12:18:30;12.70;99.90
26378;DHT22;14078;50.974;6.786;2023-04-15T12:20:56;12.60;99.90
26378;DHT22;14078;50.974;6.786;2023-04-15T12:23:30;12.60;99.90
26378;DHT22;14078;50.974;6.786;2023-04-15T12:25:56;12.60;99.90
26378;DHT22;14078;50.974;6.786;2023-04-15T12:28:24;12.80;99.90
26378;DHT22;14078;50.974;6.786;2023-04-15T12:30:51;13.10;99.90
26378;DHT22;14078;50.974;6.786;2023-04-15T12:33:17;12.90;99.90
26378;DHT22;14078;50.974;6.786;2023-04-15T12:35:44;12.80;99.90
26378;DHT22;14078;50.974;6.786;2023-04-15T12:38:10;12.70;99.90
26378;DHT22;14078;50.974;6.786;2023-04-15T12:40:37;12.20;99.90
26378;DHT22;14078;50.974;6.786;2023-04-15T12:43:03;12.60;99.90
26378;DHT22;14078;50.974;6.786;2023-04-15T12:45:31;12.80;99.90
26378;DHT22;14078;50.974;6.786;2023-04-15T12:47:58;12.60;99.90
26378;DHT22;14078;50.974;6.786;2023-04-15T12:50:24;12.40;99.90
26378;DHT22;14078;50.974;6.786;2023-04-15T12:52:51;12.40;99.90
26378;DHT22;14078;50.974;6.786;2023-04-15T12:55:17;12.40;99.90
26378;DHT22;14078;50.974;6.786;2023-04-15T12:57:44;12.40;99.90
26378;DHT22;14078;50.974;6.786;2023-04-15T13:00:11;12.30;99.90
26378;DHT22;14078;50.974;6.786;2023-04-15T13:02:39;12.30;99.90
26378;DHT22;14078;50.974;6.786;2023-04-15T13:05:05;12.30;1.00
26378;DHT22;14078;50.974;6.786;2023-04-15T13:07:32;12.20;1.00
26378;DHT22;14078;50.974;6.786;2023-04-15T13:09:58;12.00;1.00
26378;DHT22;14078;50.974;6.786;2023-04-15T13:12:25;12.00;1.00
26378;DHT22;14078;50.974;6.786;2023-04-15T13:14:52;12.00;1.00
26378;DHT22;14078;50.974;6.786;2023-04-15T13:17:18;11.90;1.00
26378;DHT22;14078;50.974;6.786;2023-04-15T13:19:47;12.00;1.00
26378;DHT22;14078;50.974;6.786;2023-04-15T13:22:14;12.00;1.00
26378;DHT22;14078;50.974;6.786;2023-04-15T13:24:40;11.80;1.00
26378;DHT22;14078;50.974;6.786;2023-04-15T13:27:07;11.90;1.00
26378;DHT22;14078;50.974;6.786;2023-04-15T13:29:33;11.90;1.00
26378;DHT22;14078;50.974;6.786;2023-04-15T13:32:00;11.90;1.00
26378;DHT22;14078;50.974;6.786;2023-04-15T13:34:26;11.90;1.00
26378;DHT22;14078;50.974;6.786;2023-04-15T13:36:54;11.90;1.00
26378;DHT22;14078;50.974;6.786;2023-04-15T13:39:21;12.00;1.00
26378;DHT22;14078;50.974;6.786;2023-04-15T13:41:47;12.00;1.00
26378;DHT22;14078;50.974;6.786;2023-04-15T13:44:14;12.00;1.00
26378;DHT22;14078;50.974;6.786;2023-04-15T13:46:40;12.00;1.00
26378;DHT22;14078;50.974;6.786;2023-04-15T13:49:07;11.80;1.00
26378;DHT22;14078;50.974;6.786;2023-04-15T13:51:33;11.80;1.00
26378;DHT22;14078;50.974;6.786;2023-04-15T13:54:02;11.70;1.00
26378;DHT22;14078;50.974;6.786;2023-04-15T13:56:29;11.60;1.00
26378;DHT22;14078;50.974;6.786;2023-04-15T13:58:55;11.70;1.00
26378;DHT22;14078;50.974;6.786;2023-04-15T14:01:23;11.70;1.00
26378;DHT22;14078;50.974;6.786;2023-04-15T14:03:49;11.70;1.00
26378;DHT22;14078;50.974;6.786;2023-04-15T14:06:16;11.70;1.00
26378;DHT22;14078;50.974;6.786;2023-04-15T14:08:42;11.60;1.00
26378;DHT22;14078;50.974;6.786;2023-04-15T14:11:10;11.60;1.00
26378;DHT22;14078;50.974;6.786;2023-04-15T14:13:37;11.60;1.00
26378;DHT22;14078;50.974;6.786;2023-04-15T14:16:04;11.40;1.00
26378;DHT22;14078;50.974;6.786;2023-04-15T14:18:31;11.50;1.00
26378;DHT22;14078;50.974;6.786;2023-04-15T14:20:58;11.50;1.00
26378;DHT22;14078;50.974;6.786;2023-04-15T14:23:24;11.50;1.00
26378;DHT22;14078;50.974;6.786;2023-04-15T14:25:51;11.50;1.00
26378;DHT22;14078;50.974;6.786;2023-04-15T14:28:19;11.50;1.00
26378;DHT22;14078;50.974;6.786;2023-04-15T14:30:46;11.40;1.00
26378;DHT22;14078;50.974;6.786;2023-04-15T14:33:12;11.50;1.00
26378;DHT22;14078;50.974;6.786;2023-04-15T14:35:39;11.50;1.00
26378;DHT22;14078;50.974;6.786;2023-04-15T14:38:05;11.50;1.00
26378;DHT22;14078;50.974;6.786;2023-04-15T14:40:35;11.40;1.00
26378;DHT22;14078;50.974;6.786;2023-04-15T14:43:01;11.50;1.00
26378;DHT22;14078;50.974;6.786;2023-04-15T14:45:29;11.50;1.00
26378;DHT22;14078;50.974;6.786;2023-04-15T14:47:56;11.70;1.00
26378;DHT22;14078;50.974;6.786;2023-04-15T14:50:22;11.70;1.00
26378;DHT22;14078;50.974;6.786;2023-04-15T14:52:49;11.80;1.00
26378;DHT22;14078;50.974;6.786;2023-04-15T14:55:15;11.90;1.00
26378;DHT22;14078;50.974;6.786;2023-04-15T14:57:42;12.00;1.00
26378;DHT22;14078;50.974;6.786;2023-04-15T15:00:10;12.00;1.00
26378;DHT22;14078;50.974;6.786;2023-04-15T15:02:38;11.90;1.00
26378;DHT22;14078;50.974;6.786;2023-04-15T15:05:05;11.90;1.00
26378;DHT22;14078;50.974;6.786;2023-04-15T15:07:31;11.80;1.00
26378;DHT22;14078;50.974;6.786;2023-04-15T15:09:58;11.60;1.00
26378;DHT22;14078;50.974;6.786;2023-04-15T15:12:24;11.50;34.80
26378;DHT22;14078;50.974;6.786;2023-04-15T15:14:51;11.40;48.40
26378;DHT22;14078;50.974;6.786;2023-04-15T15:17:17;11.40;99.90
26378;DHT22;14078;50.974;6.786;2023-04-15T15:19:45;11.30;99.90
26378;DHT22;14078;50.974;6.786;2023-04-15T15:22:11;11.30;99.90
26378;DHT22;14078;50.974;6.786;2023-04-15T15:24:38;11.30;99.90
26378;DHT22;14078;50.974;6.786;2023-04-15T15:27:04;11.20;99.90
26378;DHT22;14078;50.974;6.786;2023-04-15T15:29:31;11.20;99.90
26378;DHT22;14078;50.974;6.786;2023-04-15T15:31:58;11.20;99.90
26378;DHT22;14078;50.974;6.786;2023-04-15T15:34:24;11.20;99.90
26378;DHT22;14078;50.974;6.786;2023-04-15T15:36:53;11.20;99.90
26378;DHT22;14078;50.974;6.786;2023-04-15T15:39:19;11.30;1.00
26378;DHT22;14078;50.974;6.786;2023-04-15T15:41:47;11.20;99.90
26378;DHT22;14078;50.974;6.786;2023-04-15T15:44:14;11.20;99.90
26378;DHT22;14078;50.974;6.786;2023-04-15T15:46:40;11.20;99.90
26378;DHT22;14078;50.974;6.786;2023-04-15T15:49:07;11.20;99.90